• Join FlightAware (Why Join?)
  • Login
  • US Flag 
08:48PM EDT


 

Airport Tracker/Info


-or-


 

Live Flight TrackerFlight Track Log ✈ LNI33 ✈ 14-Mar-2014 ✈ WADD / DPS - WIII / CGK

Flight Track Log - Related Links

Times and Time Zones

All times are in EDT time to prevent confusion due to time zone crossing. See the LNI33 flight status page for this flight to view local times or setup timezone preferences in your user account.

Time Position Orientation Groundspeed Altitude Reporting Facility
EDT Latitude Longitude Course Direction KTS MPH feet Rate Location/Type
07:13AM -7.7714 113.7759 299° West 484 557 34,100  Level FlightAware ADS-B (WARR / SUB)
07:13AM -7.7335 113.7065 299° West 479 551 34,800 1,140 Climbing FlightAware ADS-B (WARR / SUB)
07:14AM -7.7005 113.6460 299° West 477 549 35,400 960 Climbing FlightAware ADS-B (WARR / SUB)
07:14AM -7.6715 113.5933 299° West 476 548 35,800 600 Climbing FlightAware ADS-B (WARR / SUB)
07:15AM -7.6609 113.5740 299° West 476 548 36,000 180 Climbing FlightAware ADS-B
07:15AM -7.6043 113.4709 299° West 476 548 36,000  Level FlightAware ADS-B
07:16AM -7.5368 113.3483 299° West 474 545 36,000  Level FlightAware ADS-B (WARR / SUB)
07:17AM -7.5074 113.2946 299° West 474 545 36,000  Level FlightAware ADS-B
07:17AM -7.4651 113.2174 299° West 474 545 36,000  Level FlightAware ADS-B (WARR / SUB)
07:18AM -7.4362 113.1645 299° West 473 544 36,000  Level FlightAware ADS-B
07:18AM -7.4014 113.1014 299° West 473 544 36,000  Level FlightAware ADS-B (WARR / SUB)
07:19AM -7.3696 113.0435 299° West 474 545 36,000  Level FlightAware ADS-B (WARR / SUB)
07:19AM -7.3385 112.9870 299° West 476 548 36,000  Level FlightAware ADS-B
07:20AM -7.3105 112.9361 299° West 477 549 36,000  Level FlightAware ADS-B
07:20AM -7.2799 112.8785 293° West 477 549 36,000  Level FlightAware ADS-B
07:21AM -7.2504 112.8043 291° West 477 549 36,000  Level FlightAware ADS-B
07:22AM -7.2311 112.7542 291° West 477 549 36,000  Level FlightAware ADS-B
07:22AM -7.1884 112.6441 292° West 478 550 36,000  Level FlightAware ADS-B
07:23AM -7.1489 112.5435 292° West 479 551 36,000  Level FlightAware ADS-B (WARR / SUB)
07:24AM -7.1219 112.4747 292° West 480 552 36,000  Level FlightAware ADS-B (WARR / SUB)
07:24AM -7.0968 112.4106 291° West 481 554 36,000  Level FlightAware ADS-B (WARR / SUB)
07:25AM -7.0641 112.3271 291° West 482 555 36,000  Level FlightAware ADS-B (WARR / SUB)
07:25AM -7.0375 112.2594 292° West 484 557 36,000  Level FlightAware ADS-B (WARR / SUB)
07:26AM -7.0075 112.1827 291° West 485 558 36,000  Level FlightAware ADS-B (WARR / SUB)
07:27AM -6.9730 112.0949 292° West 486 559 36,000  Level FlightAware ADS-B (WARR / SUB)
07:27AM -6.9530 112.0440 292° West 487 560 36,000  Level FlightAware ADS-B (WARR / SUB)
07:30AM -6.8868 111.5976 278° West  Level Estimated
07:31AM -6.8589 111.4103 279° West  Level Estimated
07:32AM -6.8309 111.2231 279° West  Level Estimated
07:33AM -6.8028 111.0358 279° West  Level Estimated
07:34AM -6.7747 110.8486 279° West  Level Estimated
07:35AM -6.7465 110.6614 279° West  Level Estimated
07:36AM -6.7182 110.4742 279° West  Level Estimated
07:37AM -6.6899 110.2871 279° West  Level Estimated
07:38AM -6.6615 110.1000 279° West  Level Estimated
07:39AM -6.6330 109.9129 279° West  Level Estimated
07:40AM -6.6044 109.7258 279° West  Level Estimated
07:41AM -6.5758 109.5387 279° West  Level Estimated
07:42AM -6.5471 109.3517 279° West  Level Estimated
07:43AM -6.5183 109.1647 279° West  Level Estimated
07:44AM -6.4895 108.9777 279° West  Level Estimated
07:45AM -6.4606 108.7907 279° West  Level Estimated
07:46AM -6.4316 108.6038 279° West  Level Estimated
07:47AM -6.4026 108.4168 279° West  Level Estimated
07:48AM -6.3735 108.2299 279° West  Level Estimated
07:49AM -6.3443 108.0430 279° West  Level Estimated
07:50AM -6.3150 107.8561 279° West  Level Estimated
07:51AM -6.2857 107.6693 279° West  Level Estimated
07:52AM -6.2564 107.4825 279° West  Level Estimated
07:53AM -6.2269 107.2957 279° West  Level Estimated
07:54AM -6.1974 107.1089 279° West  Level Estimated
07:55AM -6.1678 106.9221 279° West  Level Estimated
07:56AM -6.1382 106.7354 279° West  Level Estimated
07:57AM -6.1256 106.6559 279° West  Level Estimated
07:58AM -6.1256 106.6559 North  Level Estimated
07:59AM -6.1256 106.6559 North  Level Estimated
08:00AM -6.1256 106.6559 North  Level Estimated
08:01AM -6.1256 106.6559 North  Level Estimated
08:02AM -6.1256 106.6559 North  Level Estimated
08:03AM -6.1256 106.6559 North  Level Estimated
08:04AM -6.1256 106.6559 North  Level Estimated
08:05AM -6.1256 106.6559 North  Level Estimated
08:06AM -6.1256 106.6559 North  Level Estimated
08:07AM -6.1256 106.6559 North  Level Estimated
08:08AM -6.1256 106.6559 North  Level Estimated
08:09AM -6.1256 106.6559 North  Level Estimated
08:10AM -6.1256 106.6559 North  Level Estimated
08:11AM -6.1256 106.6559 North  Level Estimated
08:12AM -6.1256 106.6559 North  Level Estimated
08:13AM -6.1256 106.6559 North  Level Estimated
08:14AM -6.1256 106.6559 North  Level Estimated
08:15AM -6.1256 106.6559 North  Level Estimated
08:16AM -6.1256 106.6559 North  Level Estimated